Time;durP1;ratioP1;P1;durP2;ratioP2;P2;SDS_P1;SDS_P2;PMS_P1;PMS_P2;Temp;Humidity;BMP_temperature;BMP_pressure;BME280_temperature;BME280_humidity;BME280_pressure;Samples;Min_cycle;Max_cycle;Signal;HPM_P1;HPM_P2
2022/10/28 00:01:10;;;;;;;21.85;6.30;;;14.80;99.90;;;;;;4989943;28;20034;-94
2022/10/28 00:03:38;;;;;;;17.08;6.57;;;14.80;99.90;;;;;;4985082;28;20040;-95
2022/10/28 00:06:05;;;;;;;25.42;6.82;;;14.80;99.90;;;;;;4984869;28;20459;-95
2022/10/28 00:08:31;;;;;;;21.40;6.97;;;14.80;99.90;;;;;;4984222;28;20058;-94
2022/10/28 00:11:08;;;;;;;26.33;6.55;;;14.80;99.90;;;;;;4996682;28;20035;-94
2022/10/28 00:13:35;;;;;;;20.92;6.03;;;14.80;99.90;;;;;;4983261;28;20033;-96
2022/10/28 00:16:10;;;;;;;21.90;7.20;;;14.80;99.90;;;;;;4983206;28;20026;-93
2022/10/28 00:18:37;;;;;;;19.50;6.28;;;14.80;99.90;;;;;;4982639;28;20514;-95
2022/10/28 00:21:05;;;;;;;19.52;6.65;;;14.90;99.90;;;;;;4979741;28;20022;-93
2022/10/28 00:23:31;;;;;;;20.80;8.30;;;14.90;99.90;;;;;;4981539;28;20051;-94
2022/10/28 00:26:11;;;;;;;20.75;7.65;;;14.90;99.90;;;;;;4986945;28;20065;-93
2022/10/28 00:28:45;;;;;;;23.63;7.70;;;14.90;99.90;;;;;;4985672;28;20026;-92
2022/10/28 00:31:12;;;;;;;23.92;7.72;;;15.00;99.90;;;;;;4986650;28;20034;-95
2022/10/28 00:33:38;;;;;;;21.73;7.40;;;15.00;99.90;;;;;;4984521;28;20029;-94
2022/10/28 00:36:15;;;;;;;24.98;8.98;;;15.00;99.90;;;;;;4985027;28;20134;-93
2022/10/28 00:38:43;;;;;;;26.30;9.05;;;15.10;99.90;;;;;;4998335;28;20054;-94
2022/10/28 00:41:11;;;;;;;18.40;8.90;;;15.10;99.90;;;;;;4984056;28;20035;-95
2022/10/28 00:43:40;;;;;;;18.75;8.48;;;15.10;99.90;;;;;;4982909;28;20037;-94
2022/10/28 00:46:23;;;;;;;20.97;7.73;;;15.10;99.90;;;;;;4982376;28;20040;-94
2022/10/28 00:48:54;;;;;;;29.02;9.85;;;15.20;99.90;;;;;;4981674;28;20066;-95
2022/10/28 00:51:22;;;;;;;24.63;8.57;;;15.20;99.90;;;;;;4998754;28;20030;-96
2022/10/28 00:53:50;;;;;;;20.20;8.43;;;15.20;99.90;;;;;;4982580;28;20461;-96
2022/10/28 00:56:16;;;;;;;24.92;8.85;;;15.20;99.90;;;;;;4964752;28;20050;-93
2022/10/28 00:58:44;;;;;;;21.17;7.50;;;15.20;99.90;;;;;;4980994;28;20050;-95
2022/10/28 01:01:09;;;;;;;16.40;7.85;;;15.20;99.90;;;;;;4965130;28;20038;-94
2022/10/28 01:03:36;;;;;;;24.05;7.85;;;15.20;99.90;;;;;;4981007;28;20034;-95
2022/10/28 01:06:02;;;;;;;16.55;7.60;;;15.20;99.90;;;;;;4985779;28;20022;-95
2022/10/28 01:08:28;;;;;;;21.98;7.15;;;15.20;99.90;;;;;;5002177;28;20035;-92
2022/10/28 01:11:15;;;;;;;17.15;7.55;;;15.20;99.90;;;;;;4980655;28;20106;-95
2022/10/28 01:14:14;;;;;;;15.50;7.57;;;15.20;99.90;;;;;;4980024;28;20117;-95
2022/10/28 01:17:14;;;;;;;24.77;7.82;;;15.20;99.90;;;;;;4981236;28;20023;-92
2022/10/28 01:20:09;;;;;;;21.38;7.78;;;15.20;99.90;;;;;;4979763;28;20042;-95
2022/10/28 01:22:44;;;;;;;17.00;7.15;;;15.20;99.90;;;;;;4980060;28;20133;-95
2022/10/28 01:25:28;;;;;;;16.52;6.97;;;15.20;99.90;;;;;;4987825;28;20043;-95
2022/10/28 01:28:34;;;;;;;16.55;6.63;;;15.20;99.90;;;;;;4974382;28;20129;-94
2022/10/28 01:31:18;;;;;;;19.58;6.45;;;15.10;99.90;;;;;;4964016;28;20177;-93
2022/10/28 01:34:24;;;;;;;15.25;6.65;;;15.10;99.90;;;;;;4959519;28;20023;-95
2022/10/28 01:37:14;;;;;;;17.98;7.00;;;15.10;99.90;;;;;;4948625;28;20034;-94
2022/10/28 01:39:54;;;;;;;16.45;5.72;;;15.10;99.90;;;;;;4963087;28;20035;-93
2022/10/28 01:42:38;;;;;;;17.50;6.10;;;15.10;99.90;;;;;;4966689;28;20527;-94
2022/10/28 01:45:25;;;;;;;16.85;5.70;;;15.10;99.90;;;;;;4969837;28;20053;-94
2022/10/28 01:47:55;;;;;;;12.52;4.95;;;15.10;99.90;;;;;;4966655;28;20050;-94
2022/10/28 01:50:36;;;;;;;16.58;5.65;;;15.10;99.90;;;;;;4967951;28;20100;-93
2022/10/28 01:53:06;;;;;;;12.68;5.57;;;15.10;99.90;;;;;;4963996;28;20061;-93
2022/10/28 01:55:38;;;;;;;18.52;4.80;;;15.10;99.90;;;;;;4963619;28;20038;-94
2022/10/28 01:58:06;;;;;;;17.15;5.40;;;15.00;99.90;;;;;;4965280;28;20062;-96
2022/10/28 02:00:32;;;;;;;16.95;4.15;;;15.10;99.90;;;;;;4964730;28;20023;-94
2022/10/28 02:02:58;;;;;;;14.10;3.65;;;15.10;99.90;;;;;;4966222;28;20026;-94
2022/10/28 02:05:48;;;;;;;16.38;5.57;;;15.10;99.90;;;;;;4962893;28;20039;-92
2022/10/28 02:08:17;;;;;;;13.27;4.15;;;15.10;99.90;;;;;;4963807;28;20041;-94
2022/10/28 02:11:11;;;;;;;15.02;4.53;;;15.10;99.90;;;;;;4965447;28;20046;-95
2022/10/28 02:13:46;;;;;;;15.18;4.45;;;15.10;99.90;;;;;;4895041;29;20047;-95
2022/10/28 02:16:21;;;;;;;11.40;4.32;;;15.10;99.90;;;;;;4896962;29;20072;-91
2022/10/28 02:18:58;;;;;;;13.30;4.47;;;15.10;99.90;;;;;;4883788;29;20049;-91
2022/10/28 02:21:35;;;;;;;11.10;4.50;;;15.10;99.90;;;;;;4882180;29;20052;-93
2022/10/28 02:24:11;;;;;;;11.70;4.25;;;15.10;99.90;;;;;;4878425;29;20680;-94
2022/10/28 02:26:49;;;;;;;14.05;4.28;;;15.10;99.90;;;;;;4882860;29;20049;-93
2022/10/28 02:29:37;;;;;;;11.38;3.70;;;15.10;99.90;;;;;;4877242;29;20040;-92
2022/10/28 02:32:10;;;;;;;11.50;3.72;;;15.10;99.90;;;;;;4873872;29;20549;-94
2022/10/28 02:34:42;;;;;;;18.42;4.40;;;15.10;99.90;;;;;;4870960;29;20119;-95
2022/10/28 02:37:14;;;;;;;8.18;3.92;;;15.10;99.90;;;;;;4870386;29;20045;-94
2022/10/28 02:39:45;;;;;;;12.70;4.10;;;15.10;99.90;;;;;;4872119;29;20033;-93
2022/10/28 02:42:20;;;;;;;12.93;4.25;;;15.10;99.90;;;;;;4870813;29;20529;-94
2022/10/28 02:44:54;;;;;;;10.98;3.97;;;15.00;99.90;;;;;;4869843;29;20033;-95
2022/10/28 02:47:24;;;;;;;11.48;4.63;;;15.00;99.90;;;;;;4867813;29;20029;-95
2022/10/28 02:49:55;;;;;;;11.30;3.78;;;15.00;99.90;;;;;;4890187;28;20129;-95
2022/10/28 02:52:23;;;;;;;12.77;2.92;;;15.00;99.90;;;;;;4965531;28;20038;-93
2022/10/28 02:54:54;;;;;;;13.23;3.45;;;15.00;99.90;;;;;;4963460;28;20082;-93
2022/10/28 02:57:33;;;;;;;14.95;5.03;;;15.00;99.90;;;;;;4964024;28;20029;-96
2022/10/28 03:00:04;;;;;;;8.35;3.83;;;15.00;99.90;;;;;;4962060;28;20039;-94
2022/10/28 03:02:30;;;;;;;15.43;3.90;;;15.00;99.90;;;;;;4961859;28;20023;-94
2022/10/28 03:04:56;;;;;;;15.55;4.28;;;15.00;99.90;;;;;;4976762;28;20042;-94
2022/10/28 03:07:23;;;;;;;14.80;3.90;;;15.00;99.90;;;;;;4999050;28;20025;-95
2022/10/28 03:09:48;;;;;;;11.90;4.00;;;14.90;99.90;;;;;;4953522;28;20047;-96
2022/10/28 03:12:14;;;;;;;16.10;4.43;;;14.90;99.90;;;;;;4964529;28;20034;-95
2022/10/28 03:14:41;;;;;;;12.25;3.92;;;14.90;99.90;;;;;;4965350;28;20057;-95
2022/10/28 03:17:07;;;;;;;15.60;3.85;;;14.90;99.90;;;;;;4966051;28;20027;-93
2022/10/28 03:19:33;;;;;;;9.10;4.00;;;14.90;99.90;;;;;;4966877;28;20393;-94
2022/10/28 03:21:58;;;;;;;14.77;4.63;;;14.90;99.90;;;;;;4966156;28;20404;-95
2022/10/28 03:24:24;;;;;;;11.98;3.33;;;14.90;99.90;;;;;;4964824;28;20038;-94
2022/10/28 03:26:50;;;;;;;10.82;3.47;;;14.90;99.90;;;;;;4963130;28;20026;-94
2022/10/28 03:29:15;;;;;;;14.27;4.03;;;14.90;99.90;;;;;;4962113;28;20039;-93
2022/10/28 03:31:42;;;;;;;9.50;3.70;;;15.00;99.90;;;;;;4961877;28;20543;-93
2022/10/28 03:34:08;;;;;;;12.50;4.07;;;15.00;99.90;;;;;;4961423;28;20125;-91
2022/10/28 03:36:33;;;;;;;13.25;4.43;;;15.00;99.90;;;;;;4962103;28;20069;-91
2022/10/28 03:38:59;;;;;;;13.70;4.10;;;15.00;99.90;;;;;;4960943;28;20053;-92
2022/10/28 03:41:25;;;;;;;11.18;4.57;;;15.00;99.90;;;;;;4961677;28;20031;-93
2022/10/28 03:43:50;;;;;;;14.60;4.55;;;15.00;99.90;;;;;;4960524;28;20113;-92
2022/10/28 03:46:16;;;;;;;15.70;4.45;;;15.00;99.90;;;;;;4964421;28;20035;-93
2022/10/28 03:48:41;;;;;;;12.13;4.93;;;15.00;99.90;;;;;;4960067;28;20555;-93
2022/10/28 03:51:07;;;;;;;14.63;4.40;;;15.00;99.90;;;;;;4960884;28;20055;-93
2022/10/28 03:53:33;;;;;;;19.73;4.75;;;15.00;99.90;;;;;;4960733;28;20027;-93
2022/10/28 03:56:00;;;;;;;14.90;5.10;;;15.00;99.90;;;;;;4961967;28;20081;-93
2022/10/28 03:58:26;;;;;;;11.85;4.68;;;15.00;99.90;;;;;;4959402;28;20093;-94
2022/10/28 04:00:53;;;;;;;13.20;3.90;;;15.00;99.90;;;;;;4963356;28;20042;-95
2022/10/28 04:03:20;;;;;;;16.98;4.20;;;15.00;99.90;;;;;;4978943;28;20041;-94
2022/10/28 04:05:49;;;;;;;14.98;4.28;;;15.00;99.90;;;;;;4978538;28;20073;-94
2022/10/28 04:08:16;;;;;;;14.02;4.25;;;15.00;99.90;;;;;;4978722;28;20510;-94
2022/10/28 04:10:43;;;;;;;20.58;5.05;;;15.00;99.90;;;;;;4978172;28;20120;-93
2022/10/28 04:13:09;;;;;;;16.60;4.45;;;14.90;99.90;;;;;;4978393;28;20062;-94
2022/10/28 04:15:35;;;;;;;18.63;5.55;;;14.90;99.90;;;;;;4978074;28;20542;-95
2022/10/28 04:18:01;;;;;;;18.75;4.70;;;14.90;99.90;;;;;;4977817;28;20530;-93
2022/10/28 04:20:27;;;;;;;18.70;5.50;;;14.80;99.90;;;;;;4977441;28;20030;-93
2022/10/28 04:22:53;;;;;;;21.20;4.85;;;14.80;99.90;;;;;;4965586;28;20077;-94
2022/10/28 04:25:23;;;;;;;16.00;4.90;;;14.70;99.90;;;;;;4956144;28;20054;-94
2022/10/28 04:27:49;;;;;;;18.40;5.28;;;14.70;99.90;;;;;;4957709;28;20030;-94
2022/10/28 04:30:15;;;;;;;17.38;5.30;;;14.60;99.90;;;;;;4957952;28;20479;-92
2022/10/28 04:32:42;;;;;;;18.38;4.82;;;14.60;99.90;;;;;;4957776;28;20058;-93
2022/10/28 04:35:09;;;;;;;15.52;5.43;;;14.60;99.90;;;;;;4957691;28;20113;-94
2022/10/28 04:37:35;;;;;;;15.48;5.03;;;14.50;99.90;;;;;;4957488;28;20118;-95
2022/10/28 04:40:01;;;;;;;12.07;4.63;;;14.50;99.90;;;;;;4957813;28;20114;-94
2022/10/28 04:42:27;;;;;;;16.33;5.03;;;14.40;99.90;;;;;;4957654;28;20045;-93
2022/10/28 04:44:52;;;;;;;18.15;5.65;;;14.50;99.90;;;;;;4957770;28;20031;-93
2022/10/28 04:47:18;;;;;;;20.70;4.88;;;14.40;99.90;;;;;;4958821;28;20508;-94
2022/10/28 04:49:44;;;;;;;21.58;6.70;;;14.40;99.90;;;;;;4957958;28;20118;-93
2022/10/28 04:52:10;;;;;;;22.65;5.03;;;14.40;99.90;;;;;;4957160;28;20026;-93
2022/10/28 04:54:36;;;;;;;22.17;5.10;;;14.40;99.90;;;;;;4959441;28;20193;-94
2022/10/28 04:57:01;;;;;;;13.40;5.45;;;14.40;99.90;;;;;;4958664;28;20118;-96
2022/10/28 04:59:28;;;;;;;22.65;5.72;;;14.40;99.90;;;;;;4977787;28;20097;-95
2022/10/28 05:01:54;;;;;;;22.83;5.40;;;14.40;99.90;;;;;;4959737;28;20055;-95
2022/10/28 05:04:20;;;;;;;19.27;5.50;;;14.50;99.90;;;;;;4957873;28;20050;-95
2022/10/28 05:06:46;;;;;;;17.83;5.07;;;14.40;99.90;;;;;;4957188;28;20033;-95
2022/10/28 05:09:12;;;;;;;19.23;5.45;;;14.40;99.90;;;;;;4958183;28;20045;-94
2022/10/28 05:11:38;;;;;;;17.70;6.68;;;14.40;99.90;;;;;;4955777;28;20031;-92
2022/10/28 05:14:04;;;;;;;21.13;5.43;;;14.40;99.90;;;;;;4960513;28;20118;-94
2022/10/28 05:16:29;;;;;;;15.55;5.40;;;14.40;99.90;;;;;;4960063;28;20035;-94
2022/10/28 05:18:56;;;;;;;17.67;6.15;;;14.40;99.90;;;;;;4960244;28;20062;-95
2022/10/28 05:21:21;;;;;;;20.88;5.60;;;14.40;99.90;;;;;;4958924;28;20057;-92
2022/10/28 05:23:47;;;;;;;21.02;5.40;;;14.50;99.90;;;;;;4977419;28;20065;-93
2022/10/28 05:26:13;;;;;;;12.48;5.10;;;14.40;99.90;;;;;;4997159;28;20468;-93
2022/10/28 05:28:39;;;;;;;14.77;5.05;;;14.50;99.90;;;;;;4984654;28;20027;-94
2022/10/28 05:31:05;;;;;;;15.93;4.63;;;14.50;99.90;;;;;;4988224;28;20042;-93
2022/10/28 05:33:32;;;;;;;16.13;4.43;;;14.50;99.90;;;;;;4980607;28;20099;-93
2022/10/28 05:35:59;;;;;;;17.35;4.72;;;14.50;99.90;;;;;;4979075;28;20057;-92
2022/10/28 05:38:25;;;;;;;15.70;4.55;;;14.50;99.90;;;;;;4960273;28;20019;-94
2022/10/28 05:40:51;;;;;;;17.80;4.72;;;14.40;99.90;;;;;;4978942;28;20031;-93
2022/10/28 05:43:17;;;;;;;13.30;4.40;;;14.50;99.90;;;;;;4979040;28;20026;-95
2022/10/28 05:45:42;;;;;;;15.40;4.30;;;14.50;99.90;;;;;;4997447;28;20476;-94
2022/10/28 05:48:08;;;;;;;11.75;3.97;;;14.50;99.90;;;;;;4996796;28;20073;-93
2022/10/28 05:50:34;;;;;;;15.45;4.40;;;14.50;99.90;;;;;;4979302;28;20117;-93
2022/10/28 05:53:00;;;;;;;16.70;4.32;;;14.50;99.90;;;;;;4979068;28;20023;-93
2022/10/28 05:55:28;;;;;;;9.57;3.63;;;14.50;99.90;;;;;;4982918;28;20081;-93
2022/10/28 05:57:54;;;;;;;14.65;3.60;;;14.50;99.90;;;;;;4981269;28;20042;-94
2022/10/28 06:00:24;;;;;;;11.55;3.90;;;14.60;99.90;;;;;;4982349;28;20085;-94
2022/10/28 06:02:50;;;;;;;9.55;3.35;;;14.60;99.90;;;;;;4980942;28;20044;-94
2022/10/28 06:05:16;;;;;;;16.33;3.95;;;14.60;99.90;;;;;;4986372;28;20030;-94
2022/10/28 06:07:42;;;;;;;16.02;4.20;;;14.70;99.90;;;;;;4983157;28;20030;-93
2022/10/28 06:10:10;;;;;;;11.48;3.30;;;14.70;99.90;;;;;;4982417;28;20029;-94
2022/10/28 06:12:35;;;;;;;15.73;3.35;;;14.70;99.90;;;;;;4983005;28;20454;-94
2022/10/28 06:15:01;;;;;;;19.23;3.50;;;14.70;99.90;;;;;;4985194;28;20058;-94
2022/10/28 06:17:27;;;;;;;8.98;2.60;;;14.70;99.90;;;;;;4983537;28;20053;-94
2022/10/28 06:19:53;;;;;;;9.25;2.58;;;14.70;99.90;;;;;;5001209;28;20046;-94
2022/10/28 06:22:19;;;;;;;13.25;2.90;;;14.70;99.90;;;;;;4984217;28;20069;-95
2022/10/28 06:24:44;;;;;;;16.05;3.22;;;14.70;99.90;;;;;;4979504;28;20103;-94
2022/10/28 06:27:11;;;;;;;9.30;2.67;;;14.80;99.90;;;;;;4987464;28;20023;-95
2022/10/28 06:29:36;;;;;;;8.73;2.65;;;14.70;99.90;;;;;;4983977;28;20030;-94
2022/10/28 06:32:02;;;;;;;10.30;3.13;;;14.70;99.90;;;;;;4986832;28;20054;-94
2022/10/28 06:34:28;;;;;;;9.80;2.63;;;14.80;99.90;;;;;;4987584;28;20034;-93
2022/10/28 06:36:53;;;;;;;11.43;2.78;;;14.80;99.90;;;;;;4983267;28;20022;-94
2022/10/28 06:39:19;;;;;;;8.25;2.78;;;14.80;99.90;;;;;;4985984;28;20038;-93
2022/10/28 06:41:45;;;;;;;11.00;2.83;;;14.80;99.90;;;;;;5001816;28;20037;-94
2022/10/28 06:44:11;;;;;;;10.50;2.80;;;14.80;99.90;;;;;;4984524;28;20045;-93
2022/10/28 06:46:36;;;;;;;13.93;2.97;;;14.80;99.90;;;;;;4987800;28;20030;-95
2022/10/28 06:49:03;;;;;;;8.40;2.58;;;14.80;99.90;;;;;;4989779;28;20038;-94
2022/10/28 06:51:30;;;;;;;10.02;2.75;;;14.90;99.90;;;;;;4988902;28;20018;-94
2022/10/28 06:53:57;;;;;;;10.35;3.17;;;14.90;99.90;;;;;;4991575;28;20062;-93
2022/10/28 06:56:23;;;;;;;9.68;2.65;;;14.90;99.90;;;;;;4991715;28;20102;-95
2022/10/28 06:58:53;;;;;;;10.57;2.50;;;14.90;99.90;;;;;;5011151;28;20042;-93
2022/10/28 07:01:19;;;;;;;10.00;2.58;;;14.90;99.90;;;;;;4993312;28;20037;-96
2022/10/28 07:03:46;;;;;;;8.27;2.78;;;15.00;99.90;;;;;;4981222;28;20034;-92
2022/10/28 07:06:11;;;;;;;15.30;2.50;;;15.00;99.90;;;;;;4979397;28;20464;-92
2022/10/28 07:08:37;;;;;;;9.02;2.95;;;15.00;99.90;;;;;;4978584;28;20077;-91
2022/10/28 07:11:03;;;;;;;7.57;2.70;;;15.00;99.90;;;;;;4994902;28;20518;-93
2022/10/28 07:13:29;;;;;;;12.23;2.55;;;15.10;99.90;;;;;;4977662;28;20024;-91
2022/10/28 07:15:57;;;;;;;13.23;2.85;;;15.20;99.90;;;;;;4977137;28;20033;-93
2022/10/28 07:18:25;;;;;;;14.27;2.63;;;15.20;99.90;;;;;;4978626;28;20121;-91
2022/10/28 07:20:51;;;;;;;7.93;2.60;;;15.30;99.90;;;;;;4998566;28;20069;-93
2022/10/28 07:23:17;;;;;;;14.65;2.90;;;15.30;99.90;;;;;;4980645;28;20038;-92
2022/10/28 07:25:50;;;;;;;11.90;2.13;;;15.30;99.90;;;;;;4978388;28;20030;-93
2022/10/28 07:28:17;;;;;;;10.70;2.72;;;15.40;99.90;;;;;;4998275;28;20101;-93
2022/10/28 07:30:42;;;;;;;14.80;3.08;;;15.40;99.90;;;;;;4984847;28;20051;-93
2022/10/28 07:33:08;;;;;;;9.02;2.88;;;15.30;99.90;;;;;;4981996;28;20412;-93
2022/10/28 07:35:34;;;;;;;11.60;3.60;;;15.40;99.90;;;;;;5000396;28;20038;-92
2022/10/28 07:37:59;;;;;;;9.10;3.35;;;15.40;99.90;;;;;;4984482;28;20034;-92
2022/10/28 07:40:28;;;;;;;12.50;3.22;;;15.40;99.90;;;;;;5000543;28;20042;-94
2022/10/28 07:42:54;;;;;;;11.52;2.97;;;15.40;99.90;;;;;;4987952;28;20033;-93
2022/10/28 07:45:19;;;;;;;10.63;2.63;;;15.30;99.90;;;;;;4991817;28;20035;-94
2022/10/28 07:47:45;;;;;;;14.65;3.45;;;15.30;99.90;;;;;;4983262;28;20033;-93
2022/10/28 07:50:11;;;;;;;16.73;3.47;;;15.30;99.90;;;;;;4982593;28;20100;-94
2022/10/28 07:52:37;;;;;;;11.20;3.30;;;15.30;99.90;;;;;;4983867;28;20572;-94
2022/10/28 07:55:04;;;;;;;6.82;2.83;;;15.30;99.90;;;;;;4980247;28;20651;-93
2022/10/28 07:57:40;;;;;;;7.15;2.13;;;15.30;99.90;;;;;;5144893;27;20138;-93
2022/10/28 08:00:07;;;;;;;10.07;2.95;;;15.30;99.90;;;;;;5121287;28;20046;-93
2022/10/28 08:02:33;;;;;;;9.75;2.83;;;15.30;99.90;;;;;;5114609;28;20048;-96
2022/10/28 08:05:00;;;;;;;7.93;2.78;;;15.30;99.90;;;;;;5130312;28;20080;-94
2022/10/28 08:07:26;;;;;;;5.97;1.92;;;15.30;99.90;;;;;;5129031;28;20118;-95
2022/10/28 08:09:52;;;;;;;8.48;2.55;;;15.30;99.90;;;;;;5128104;28;20024;-96
2022/10/28 08:12:20;;;;;;;6.72;2.13;;;15.40;99.90;;;;;;5122403;28;20487;-95
2022/10/28 08:14:47;;;;;;;9.00;2.15;;;15.30;99.90;;;;;;5112955;28;20549;-94
2022/10/28 08:17:18;;;;;;;5.55;2.00;;;15.30;99.90;;;;;;5102197;28;20043;-95
2022/10/28 08:19:59;;;;;;;5.78;1.90;;;15.30;99.90;;;;;;5111571;28;20016;-94
2022/10/28 08:22:25;;;;;;;5.38;1.88;;;15.30;99.90;;;;;;5108187;28;20028;-95
2022/10/28 08:24:50;;;;;;;6.72;2.20;;;15.30;99.90;;;;;;5105844;28;20026;-95
2022/10/28 08:27:16;;;;;;;3.03;1.65;;;15.30;99.90;;;;;;5105287;27;20122;-95
2022/10/28 08:29:43;;;;;;;4.35;1.80;;;15.30;99.90;;;;;;5108857;28;20039;-94
2022/10/28 08:32:10;;;;;;;1.83;1.00;;;15.30;99.90;;;;;;5110246;28;20028;-96
2022/10/28 08:34:38;;;;;;;2.88;1.23;;;15.30;99.90;;;;;;5113416;28;20090;-95
2022/10/28 08:37:07;;;;;;;5.40;1.02;;;15.30;99.90;;;;;;5116543;27;20043;-91
2022/10/28 08:39:34;;;;;;;2.92;1.00;;;15.30;99.90;;;;;;5108100;28;20035;-93
2022/10/28 08:42:19;;;;;;;4.00;1.00;;;15.30;99.90;;;;;;5115258;27;20016;-90
2022/10/28 08:45:04;;;;;;;2.22;0.82;;;15.30;99.90;;;;;;5124165;27;20022;-89
2022/10/28 08:47:57;;;;;;;2.50;1.20;;;15.20;99.90;;;;;;5115318;28;20052;-94
2022/10/28 08:50:30;;;;;;;4.35;0.80;;;15.20;99.90;;;;;;5121706;28;20028;-95
2022/10/28 08:53:09;;;;;;;2.97;0.80;;;15.20;99.90;;;;;;5106995;28;20023;-96
2022/10/28 08:55:40;;;;;;;4.05;0.63;;;15.10;99.90;;;;;;5102029;28;20116;-95
2022/10/28 08:58:12;;;;;;;2.28;0.65;;;15.10;99.90;;;;;;5103710;28;20027;-92
2022/10/28 09:00:39;;;;;;;4.45;0.70;;;15.10;99.90;;;;;;5113350;28;20036;-95
2022/10/28 09:03:11;;;;;;;3.80;0.60;;;15.10;99.90;;;;;;5103275;28;20045;-93
2022/10/28 09:05:39;;;;;;;0.90;0.45;;;15.00;99.90;;;;;;5103043;28;20041;-94
2022/10/28 09:08:05;;;;;;;4.05;0.70;;;15.00;99.90;;;;;;5102366;28;20015;-93
2022/10/28 09:10:50;;;;;;;1.52;0.50;;;15.00;99.90;;;;;;5095075;28;20030;-94
2022/10/28 09:13:22;;;;;;;3.67;0.60;;;15.00;99.90;;;;;;5123068;28;20036;-95
2022/10/28 09:16:28;;;;;;;2.40;0.50;;;15.00;99.90;;;;;;5099546;28;20136;-92
2022/10/28 09:19:09;;;;;;;3.88;0.68;;;15.00;99.90;;;;;;5111157;28;20028;-94
2022/10/28 09:21:42;;;;;;;;;;;15.00;99.90;;;;;;5106979;28;20047;-94
2022/10/28 09:24:34;;;;;;;2.88;0.60;;;15.00;99.90;;;;;;5102687;28;19904;-93
2022/10/28 09:27:27;;;;;;;2.40;0.47;;;15.00;99.90;;;;;;5101772;28;20040;-93
2022/10/28 09:30:02;;;;;;;1.58;0.32;;;15.10;99.90;;;;;;5104211;28;20043;-96
2022/10/28 09:33:04;;;;;;;1.38;0.35;;;15.20;99.90;;;;;;5102207;28;20027;-94
2022/10/28 09:35:36;;;;;;;2.00;0.40;;;15.40;99.90;;;;;;5097004;28;20035;-92
2022/10/28 09:38:22;;;;;;;0.50;0.35;;;15.50;99.90;;;;;;5120564;28;20016;-93
2022/10/28 09:41:03;;;;;;;1.58;0.28;;;15.50;99.90;;;;;;5091667;28;20028;-90
2022/10/28 09:43:34;;;;;;;1.95;0.30;;;15.60;99.90;;;;;;5097372;28;20035;-93
2022/10/28 09:46:14;;;;;;;0.60;0.28;;;15.80;99.90;;;;;;5103235;28;20028;-95
2022/10/28 09:48:47;;;;;;;0.75;0.28;;;16.00;99.90;;;;;;5101037;28;20028;-94
2022/10/28 09:51:28;;;;;;;2.08;0.20;;;16.30;99.90;;;;;;5097020;28;20024;-92
2022/10/28 09:53:56;;;;;;;;;;;16.40;99.90;;;;;;5106346;28;20068;-95
2022/10/28 09:56:22;;;;;;;0.65;0.30;;;16.70;99.90;;;;;;5103275;27;19923;-94
2022/10/28 09:58:47;;;;;;;0.43;0.10;;;16.90;99.90;;;;;;5101648;28;20024;-94
2022/10/28 10:01:15;;;;;;;0.43;0.20;;;17.10;99.90;;;;;;5113080;28;20032;-95
2022/10/28 10:03:42;;;;;;;2.15;0.30;;;17.20;99.90;;;;;;5115201;28;20035;-96
2022/10/28 10:06:32;;;;;;;1.45;0.85;;;17.40;99.90;;;;;;5118300;28;20020;-96
2022/10/28 10:08:59;;;;;;;0.68;0.32;;;17.50;99.90;;;;;;5117638;28;20004;-94
2022/10/28 10:11:45;;;;;;;1.05;0.20;;;17.70;99.90;;;;;;5116519;28;20024;-91
2022/10/28 10:14:35;;;;;;;2.25;0.20;;;17.90;99.90;;;;;;5124890;28;20007;-93
2022/10/28 10:17:10;;;;;;;1.08;0.43;;;18.10;99.90;;;;;;5119453;28;20044;-95
2022/10/28 10:20:04;;;;;;;1.65;0.30;;;18.20;99.90;;;;;;5113539;28;20020;-95
2022/10/28 10:22:32;;;;;;;0.90;0.20;;;18.20;99.90;;;;;;5100132;28;20055;-95
2022/10/28 10:24:58;;;;;;;1.20;0.50;;;18.10;99.90;;;;;;5096286;28;20016;-93
2022/10/28 10:27:25;;;;;;;1.35;0.20;;;17.90;99.90;;;;;;5102919;28;20393;-95
2022/10/28 10:29:52;;;;;;;1.00;0.35;;;17.80;99.90;;;;;;5107137;28;20028;-93
2022/10/28 10:32:24;;;;;;;3.28;0.20;;;17.80;99.90;;;;;;5109759;28;20035;-94
2022/10/28 10:35:05;;;;;;;1.77;0.30;;;17.80;99.90;;;;;;5108639;28;20047;-93
2022/10/28 10:37:34;;;;;;;1.08;0.25;;;17.80;99.10;;;;;;5128845;28;20031;-93
2022/10/28 10:40:07;;;;;;;1.55;0.28;;;17.60;99.20;;;;;;5132838;28;20015;-94
2022/10/28 10:42:32;;;;;;;4.03;0.50;;;17.60;99.90;;;;;;5109116;28;20028;-95
2022/10/28 10:45:14;;;;;;;1.70;0.40;;;17.70;99.90;;;;;;5099650;28;20092;-93
2022/10/28 10:47:40;;;;;;;1.35;0.20;;;17.80;99.90;;;;;;5100984;28;20032;-92
2022/10/28 10:50:36;;;;;;;2.03;0.35;;;18.00;99.90;;;;;;5116247;28;20473;-94
2022/10/28 10:53:04;;;;;;;4.00;0.30;;;18.00;98.40;;;;;;5100928;28;20028;-92
2022/10/28 10:55:39;;;;;;;1.20;0.35;;;17.90;96.90;;;;;;5117423;28;20024;-94
2022/10/28 10:58:14;;;;;;;1.27;0.20;;;17.90;97.00;;;;;;5094256;28;20077;-93
2022/10/28 11:00:48;;;;;;;2.10;0.40;;;17.80;96.30;;;;;;5084192;28;20023;-94
2022/10/28 11:03:37;;;;;;;0.93;0.20;;;17.80;95.60;;;;;;5100062;28;20084;-93
2022/10/28 11:06:06;;;;;;;1.20;0.35;;;17.90;95.40;;;;;;5098131;28;20023;-93
2022/10/28 11:08:38;;;;;;;0.57;0.28;;;18.10;95.20;;;;;;5087401;28;20032;-94
2022/10/28 11:11:33;;;;;;;1.05;0.45;;;18.20;94.40;;;;;;5098094;28;20011;-94
2022/10/28 11:14:21;;;;;;;0.93;0.20;;;18.40;94.30;;;;;;5087238;28;20083;-94
2022/10/28 11:16:51;;;;;;;1.63;0.30;;;18.50;93.70;;;;;;5084957;28;20045;-93
2022/10/28 11:19:35;;;;;;;1.48;0.77;;;18.60;93.20;;;;;;5095085;28;20031;-93
2022/10/28 11:22:15;;;;;;;2.35;0.50;;;18.80;92.80;;;;;;5100165;28;20020;-92
2022/10/28 11:25:28;;;;;;;4.85;0.75;;;19.00;92.50;;;;;;5095547;28;20020;-93
2022/10/28 11:27:54;;;;;;;2.13;0.30;;;19.30;92.20;;;;;;5097451;28;20058;-93
2022/10/28 11:30:25;;;;;;;2.70;0.40;;;19.50;91.50;;;;;;5093048;28;20103;-92
2022/10/28 11:33:12;;;;;;;1.25;0.30;;;19.70;91.40;;;;;;5083641;28;20024;-93
2022/10/28 11:36:02;;;;;;;1.55;0.50;;;20.00;90.90;;;;;;5076333;28;20121;-94
2022/10/28 11:38:40;;;;;;;;;;;20.30;89.10;;;;;;5077058;28;20028;-95
2022/10/28 11:41:20;;;;;;;1.65;0.38;;;20.40;87.00;;;;;;5081552;28;19908;-94
2022/10/28 11:43:59;;;;;;;2.03;0.40;;;20.30;83.60;;;;;;5091111;28;20004;-95
2022/10/28 11:46:47;;;;;;;2.53;0.65;;;20.40;82.50;;;;;;5079401;28;20035;-95
2022/10/28 11:49:37;;;;;;;2.13;0.50;;;20.50;80.90;;;;;;5077131;28;20026;-94
2022/10/28 11:52:19;;;;;;;6.55;0.50;;;20.60;80.20;;;;;;5076989;28;20028;-93
2022/10/28 11:55:07;;;;;;;3.55;0.40;;;20.50;79.50;;;;;;5077796;28;20032;-96
2022/10/28 11:58:02;;;;;;;4.03;0.60;;;20.30;78.70;;;;;;5094456;28;20600;-96
2022/10/28 12:00:52;;;;;;;1.80;0.70;;;20.10;77.60;;;;;;5067836;28;20028;-95
2022/10/28 12:03:49;;;;;;;3.15;0.57;;;19.80;77.90;;;;;;5077002;28;20032;-94
2022/10/28 12:06:32;;;;;;;1.05;0.40;;;19.60;78.60;;;;;;5075778;28;20133;-95
2022/10/28 12:09:08;;;;;;;1.65;0.73;;;19.60;79.20;;;;;;5079271;28;20027;-95
2022/10/28 12:11:36;;;;;;;5.45;0.60;;;19.70;78.70;;;;;;5078357;28;20024;-92
2022/10/28 12:14:21;;;;;;;3.85;0.80;;;19.90;78.10;;;;;;5085338;28;20521;-95
2022/10/28 12:17:18;;;;;;;1.90;0.40;;;20.00;77.60;;;;;;5089438;28;20099;-93
2022/10/28 12:19:57;;;;;;;4.93;1.23;;;20.00;77.70;;;;;;5106149;28;20028;-95
2022/10/28 12:22:29;;;;;;;3.25;0.60;;;19.90;77.20;;;;;;5103854;28;20028;-96
2022/10/28 12:24:58;;;;;;;7.18;0.60;;;19.80;77.40;;;;;;5104828;28;20123;-94
2022/10/28 12:27:35;;;;;;;1.50;0.53;;;19.60;77.60;;;;;;5080251;28;20028;-93
2022/10/28 12:30:15;;;;;;;2.05;0.50;;;19.50;77.90;;;;;;5085324;28;20036;-94
2022/10/28 12:32:43;;;;;;;4.50;1.02;;;19.30;78.60;;;;;;5094588;28;20027;-95
2022/10/28 12:35:17;;;;;;;4.05;0.82;;;19.00;79.10;;;;;;5077706;28;20032;-94
2022/10/28 12:37:46;;;;;;;4.00;0.63;;;18.90;80.00;;;;;;5084972;28;20036;-95
2022/10/28 12:40:25;;;;;;;9.43;1.17;;;18.60;80.30;;;;;;5086227;28;20024;-94
2022/10/28 12:43:10;;;;;;;4.93;0.60;;;18.60;81.70;;;;;;5089089;28;20020;-95
2022/10/28 12:45:39;;;;;;;6.30;1.38;;;18.70;82.30;;;;;;5095174;28;20032;-95
2022/10/28 12:48:41;;;;;;;3.05;0.70;;;19.00;82.50;;;;;;5070544;28;20028;-95
2022/10/28 12:51:32;;;;;;;4.05;0.60;;;19.60;82.50;;;;;;5114545;28;20040;-95
2022/10/28 12:54:29;;;;;;;5.32;0.68;;;20.30;80.30;;;;;;5087244;28;20026;-95
2022/10/28 12:57:28;;;;;;;2.28;0.80;;;20.70;78.80;;;;;;5100444;28;20070;-95
2022/10/28 13:00:09;;;;;;;3.53;1.02;;;20.90;77.40;;;;;;5107506;28;20012;-95
2022/10/28 13:03:03;;;;;;;4.20;0.98;;;20.90;76.30;;;;;;5103980;28;20028;-96
2022/10/28 13:05:58;;;;;;;3.45;0.68;;;21.10;76.60;;;;;;5090134;28;20028;-96
2022/10/28 13:08:55;;;;;;;5.78;0.70;;;21.30;75.10;;;;;;5114957;28;20038;-95
2022/10/28 13:11:39;;;;;;;2.25;0.60;;;21.30;74.30;;;;;;5109031;28;20032;-94